createdAt,value
2023-01-29T00:02:04.798Z,100919.47
2023-01-29T00:04:32.536Z,100921.16
2023-01-29T00:07:00.033Z,100921.19
2023-01-29T00:09:28.437Z,100918.50
2023-01-29T00:11:55.750Z,100924.69
2023-01-29T00:14:23.007Z,100925.56
2023-01-29T00:16:50.276Z,100928.19
2023-01-29T00:19:17.649Z,100930.00
2023-01-29T00:21:44.980Z,100934.56
2023-01-29T00:24:13.199Z,100934.53
2023-01-29T00:26:40.941Z,100935.38
2023-01-29T00:29:08.831Z,100932.72
2023-01-29T00:31:36.214Z,100935.38
2023-01-29T00:34:03.709Z,100936.31
2023-01-29T00:36:30.999Z,100934.53
2023-01-29T00:39:00.598Z,100943.41
2023-01-29T00:41:49.702Z,100938.91
2023-01-29T00:44:35.409Z,100939.81
2023-01-29T00:47:03.617Z,100938.91
2023-01-29T00:49:30.963Z,100937.13
2023-01-29T00:52:17.476Z,100934.38
2023-01-29T00:54:44.736Z,100933.53
2023-01-29T00:57:12.055Z,100950.44
2023-01-29T00:59:39.341Z,100932.59
2023-01-29T01:02:25.453Z,100946.06
2023-01-29T01:04:52.729Z,100947.75
2023-01-29T01:07:20.247Z,100946.94
2023-01-29T01:10:06.063Z,100945.16
2023-01-29T01:12:33.419Z,100944.25
2023-01-29T01:15:00.910Z,100947.75
2023-01-29T01:17:28.125Z,100947.81
2023-01-29T01:19:55.549Z,100943.34
2023-01-29T01:22:22.929Z,100941.66
2023-01-29T01:24:50.486Z,100954.19
2023-01-29T01:27:19.617Z,100952.34
2023-01-29T01:29:47.363Z,100951.41
2023-01-29T01:32:15.924Z,100951.38
2023-01-29T01:34:45.339Z,100945.22
2023-01-29T01:37:13.788Z,100940.72
2023-01-29T01:39:41.049Z,100944.34
2023-01-29T01:42:13.496Z,100947.00
2023-01-29T01:44:49.947Z,100954.19
2023-01-29T01:47:22.788Z,100957.69
2023-01-29T01:49:50.312Z,100957.69
2023-01-29T01:52:18.959Z,100948.75
2023-01-29T01:54:46.887Z,100957.72
2023-01-29T01:57:24.974Z,100955.03
2023-01-29T01:59:58.104Z,100952.38
2023-01-29T02:02:44.755Z,100956.03
2023-01-29T02:05:32.713Z,100961.38
2023-01-29T02:08:18.592Z,100964.00
2023-01-29T02:10:48.546Z,100959.53
2023-01-29T02:13:17.913Z,100960.53
2023-01-29T02:15:48.833Z,100968.53
2023-01-29T02:18:19.198Z,100968.56
2023-01-29T02:21:13.551Z,100964.19
2023-01-29T02:23:56.349Z,100973.06
2023-01-29T02:26:44.895Z,100969.53
2023-01-29T02:29:35.426Z,100970.41
2023-01-29T02:32:29.036Z,100981.09
2023-01-29T02:35:14.922Z,100979.34
2023-01-29T02:37:55.817Z,100980.19
2023-01-29T02:40:51.761Z,100987.38
2023-01-29T02:43:42.236Z,100998.97
2023-01-29T02:46:34.613Z,101000.78
2023-01-29T02:49:10.479Z,101006.13
2023-01-29T02:51:49.745Z,101015.09
2023-01-29T02:54:21.895Z,101013.34
2023-01-29T02:56:50.133Z,101016.16
2023-01-29T02:59:23.529Z,101011.66
2023-01-29T03:02:09.201Z,101015.19
2023-01-29T03:04:43.217Z,101015.13
2023-01-29T03:07:38.184Z,101026.66
2023-01-29T03:10:35.869Z,101031.09
2023-01-29T03:13:13.575Z,101026.66
2023-01-29T03:15:51.355Z,101025.81
2023-01-29T03:18:43.690Z,101025.03
2023-01-29T03:21:55.218Z,101015.94
2023-01-29T03:25:08.260Z,101016.00
2023-01-29T03:27:57.951Z,101018.63
2023-01-29T03:30:48.305Z,101017.78
2023-01-29T03:33:32.653Z,101015.88
2023-01-29T03:36:08.979Z,101019.47
2023-01-29T03:38:36.878Z,101023.09
2023-01-29T03:41:14.922Z,101023.06
2023-01-29T03:44:17.292Z,101032.00
2023-01-29T03:47:06.056Z,101028.56
2023-01-29T03:49:39.968Z,101027.78
2023-01-29T03:52:20.338Z,101027.56
2023-01-29T03:54:54.725Z,101019.50
2023-01-29T03:57:33.488Z,101021.59
2023-01-29T04:00:16.505Z,101014.19
2023-01-29T04:02:55.463Z,101014.19
2023-01-29T04:05:28.128Z,101016.88
2023-01-29T04:08:12.909Z,101025.75
2023-01-29T04:10:44.351Z,101024.00
2023-01-29T04:13:15.117Z,101020.47
2023-01-29T04:15:50.772Z,101021.38
2023-01-29T04:18:25.328Z,101017.88
2023-01-29T04:21:10.791Z,101025.94
2023-01-29T04:23:38.105Z,101016.88
2023-01-29T04:26:32.649Z,101020.53
2023-01-29T04:29:32.307Z,101022.72
2023-01-29T04:32:09.571Z,101024.25
2023-01-29T04:34:48.417Z,101019.06
2023-01-29T04:37:36.762Z,101025.38
2023-01-29T04:40:22.836Z,101030.66
2023-01-29T04:43:06.904Z,101032.16
2023-01-29T04:45:45.983Z,101033.91
2023-01-29T04:48:21.963Z,101037.91
2023-01-29T04:51:18.159Z,101034.00
2023-01-29T04:54:01.025Z,101037.56
2023-01-29T04:57:06.519Z,101038.34
2023-01-29T04:59:40.518Z,101037.44
2023-01-29T05:02:10.627Z,101037.69
2023-01-29T05:04:41.240Z,101037.84
2023-01-29T05:07:12.532Z,101046.50
2023-01-29T05:09:42.439Z,101050.88
2023-01-29T05:12:11.404Z,101054.63
2023-01-29T05:14:42.571Z,101051.78
2023-01-29T05:17:15.418Z,101057.22
2023-01-29T05:19:42.861Z,101059.75
2023-01-29T05:22:13.050Z,101065.16
2023-01-29T05:24:40.358Z,101063.41
2023-01-29T05:27:36.212Z,101066.97
2023-01-29T05:30:04.351Z,101069.75
2023-01-29T05:32:31.581Z,101067.97
2023-01-29T05:34:58.815Z,101073.47
2023-01-29T05:37:25.999Z,101070.78
2023-01-29T05:39:53.293Z,101080.50
2023-01-29T05:42:20.658Z,101077.81
2023-01-29T05:44:47.928Z,101077.09
2023-01-29T05:47:19.743Z,101077.88
2023-01-29T05:49:46.982Z,101086.63
2023-01-29T05:52:14.253Z,101086.78
2023-01-29T05:54:41.506Z,101088.44
2023-01-29T05:57:08.855Z,101081.28
2023-01-29T05:59:36.083Z,101097.38
2023-01-29T06:02:03.356Z,101096.53
2023-01-29T06:04:30.693Z,101092.91
2023-01-29T06:06:58.595Z,101091.31
2023-01-29T06:09:25.809Z,101101.03
2023-01-29T06:11:53.036Z,101095.69
2023-01-29T06:14:20.372Z,101098.38
2023-01-29T06:16:47.714Z,101089.44
2023-01-29T06:19:15.023Z,101101.16
2023-01-29T06:21:42.248Z,101100.94
2023-01-29T06:24:09.541Z,101100.09
2023-01-29T06:26:36.757Z,101102.72
2023-01-29T06:29:04.144Z,101112.53
2023-01-29T06:31:39.865Z,101106.31
2023-01-29T06:34:08.535Z,101116.97
2023-01-29T06:36:35.995Z,101112.53
2023-01-29T06:39:04.246Z,101107.38
2023-01-29T06:41:31.564Z,101119.66
2023-01-29T06:43:58.749Z,101119.63
2023-01-29T06:46:26.244Z,101119.59
2023-01-29T06:48:53.471Z,101121.41
2023-01-29T06:51:22.971Z,101116.09
2023-01-29T06:53:50.316Z,101122.38
2023-01-29T06:56:17.602Z,101118.84
2023-01-29T06:58:44.843Z,101121.25
2023-01-29T07:01:29.015Z,101124.00
2023-01-29T07:03:59.955Z,101118.59
2023-01-29T07:06:29.379Z,101126.56
2023-01-29T07:08:56.975Z,101126.69
2023-01-29T07:11:24.272Z,101125.72
2023-01-29T07:13:51.499Z,101124.84
2023-01-29T07:16:19.316Z,101121.16
2023-01-29T07:18:46.639Z,101129.09
2023-01-29T07:21:14.004Z,101135.38
2023-01-29T07:23:41.227Z,101132.75
2023-01-29T07:26:08.640Z,101137.13
2023-01-29T07:28:37.933Z,101138.91
2023-01-29T07:31:06.154Z,101137.97
2023-01-29T07:33:34.617Z,101145.97
2023-01-29T07:36:02.093Z,101149.47
2023-01-29T07:38:29.321Z,101145.03
2023-01-29T07:40:56.741Z,101144.09
2023-01-29T07:43:25.061Z,101136.00
2023-01-29T07:45:52.770Z,101139.41
2023-01-29T07:48:20.032Z,101142.06
2023-01-29T07:50:55.487Z,101147.31
2023-01-29T07:53:23.246Z,101141.03
2023-01-29T07:55:50.753Z,101134.66
2023-01-29T07:58:18.152Z,101137.28
2023-01-29T08:00:45.740Z,101138.59
2023-01-29T08:03:20.044Z,101143.81
2023-01-29T08:05:48.043Z,101150.28
2023-01-29T08:08:15.443Z,101152.06
2023-01-29T08:10:43.282Z,101162.22
2023-01-29T08:13:10.572Z,101153.94
2023-01-29T08:18:25.347Z,101160.09
2023-01-29T08:20:52.951Z,101165.53
2023-01-29T08:23:20.249Z,101154.78
2023-01-29T08:25:47.587Z,101160.06
2023-01-29T08:28:14.866Z,101160.69
2023-01-29T08:30:44.061Z,101161.75
2023-01-29T08:33:11.326Z,101166.28
2023-01-29T08:35:38.508Z,101154.72
2023-01-29T08:38:05.962Z,101161.00
2023-01-29T08:40:34.664Z,101164.22
2023-01-29T08:43:09.135Z,101175.00
2023-01-29T08:45:44.423Z,101180.44
2023-01-29T08:48:11.846Z,101182.44
2023-01-29T08:50:39.440Z,101178.91
2023-01-29T08:53:09.046Z,101180.75
2023-01-29T08:55:37.605Z,101179.88
2023-01-29T08:58:06.495Z,101169.16
2023-01-29T09:00:35.042Z,101170.81
2023-01-29T09:03:03.306Z,101174.41
2023-01-29T09:05:30.674Z,101174.38
2023-01-29T09:07:58.153Z,101169.81
2023-01-29T09:10:26.374Z,101174.22
2023-01-29T09:12:53.582Z,101160.88
2023-01-29T09:15:20.943Z,101173.47
2023-01-29T09:17:49.555Z,101160.63
2023-01-29T09:20:18.212Z,101164.09
2023-01-29T09:22:46.301Z,101155.81
2023-01-29T09:25:13.756Z,101156.41
2023-01-29T09:27:41.107Z,101153.72
2023-01-29T09:30:09.056Z,101143.75
2023-01-29T09:35:24.238Z,101148.97
2023-01-29T09:37:52.048Z,101153.41
2023-01-29T09:40:27.087Z,101156.84
2023-01-29T09:43:22.661Z,101156.59
2023-01-29T09:46:22.966Z,101165.06
2023-01-29T09:49:01.791Z,101165.56
2023-01-29T09:51:34.875Z,101164.25
2023-01-29T09:54:10.859Z,101171.56
2023-01-29T09:56:38.219Z,101170.72
2023-01-29T09:59:05.458Z,101167.47
2023-01-29T10:01:41.333Z,101163.53
2023-01-29T10:04:46.020Z,101173.59
2023-01-29T10:07:31.663Z,101168.44
2023-01-29T10:10:25.468Z,101171.28
2023-01-29T10:13:05.573Z,101160.56
2023-01-29T10:16:05.175Z,101161.56
2023-01-29T10:18:58.509Z,101147.81
2023-01-29T10:21:40.445Z,101156.75
2023-01-29T10:25:12.213Z,101151.69
2023-01-29T10:27:56.464Z,101143.81
2023-01-29T10:30:34.540Z,101144.28
2023-01-29T10:33:05.195Z,101150.31
2023-01-29T10:35:43.829Z,101153.06
2023-01-29T10:38:24.340Z,101157.81
2023-01-29T10:41:13.299Z,101152.69
2023-01-29T10:44:03.588Z,101151.72
2023-01-29T10:46:59.565Z,101155.28
2023-01-29T10:49:40.454Z,101155.66
2023-01-29T10:52:16.808Z,101153.00
2023-01-29T10:54:56.281Z,101143.91
2023-01-29T10:57:32.345Z,101139.31
2023-01-29T11:00:10.511Z,101140.47
2023-01-29T11:02:44.964Z,101142.34
2023-01-29T11:05:30.711Z,101137.13
2023-01-29T11:08:08.655Z,101146.19
2023-01-29T11:10:51.965Z,101142.69
2023-01-29T11:13:19.274Z,101142.69
2023-01-29T11:15:46.501Z,101137.50
2023-01-29T11:18:15.755Z,101141.16
2023-01-29T11:20:44.853Z,101142.16
2023-01-29T11:23:28.631Z,101144.06
2023-01-29T11:25:57.946Z,101141.34
2023-01-29T11:28:42.830Z,101145.84
2023-01-29T11:31:23.919Z,101141.22
2023-01-29T11:33:54.228Z,101143.09
2023-01-29T11:36:32.935Z,101139.50
2023-01-29T11:39:20.185Z,101132.47
2023-01-29T11:41:53.667Z,101127.09
2023-01-29T11:44:31.481Z,101127.03
2023-01-29T11:47:24.213Z,101134.06
2023-01-29T11:50:01.460Z,101132.28
2023-01-29T11:52:42.232Z,101127.84
2023-01-29T11:55:18.719Z,101125.03
2023-01-29T11:57:59.809Z,101123.09
2023-01-29T12:00:33.579Z,101117.78
2023-01-29T12:03:06.960Z,101118.59
2023-01-29T12:05:34.531Z,101114.22
2023-01-29T12:08:02.580Z,101114.88
2023-01-29T12:10:42.035Z,101115.72
2023-01-29T12:13:21.186Z,101115.06
2023-01-29T12:15:49.139Z,101104.31
2023-01-29T12:18:40.135Z,101099.09
2023-01-29T12:21:20.508Z,101094.63
2023-01-29T12:24:04.254Z,101099.03
2023-01-29T12:26:36.501Z,101093.00
2023-01-29T12:29:25.577Z,101088.00
2023-01-29T12:32:05.018Z,101088.06
2023-01-29T12:34:43.527Z,101084.47
2023-01-29T12:38:12.612Z,101084.41
2023-01-29T12:41:02.099Z,101081.03
2023-01-29T12:44:04.799Z,101076.78
2023-01-29T12:46:38.953Z,101085.69
2023-01-29T12:49:13.987Z,101078.53
2023-01-29T12:51:51.302Z,101077.75
2023-01-29T12:54:25.671Z,101081.44
2023-01-29T12:56:58.349Z,101082.13
2023-01-29T12:59:34.191Z,101084.72
2023-01-29T13:02:18.700Z,101086.72
2023-01-29T13:04:52.034Z,101085.16
2023-01-29T13:07:29.820Z,101077.13
2023-01-29T13:10:07.336Z,101078.03
2023-01-29T13:12:35.482Z,101074.47
2023-01-29T13:15:18.279Z,101068.94
2023-01-29T13:17:51.143Z,101070.72
2023-01-29T13:20:29.699Z,101067.22
2023-01-29T13:23:05.985Z,101060.16
2023-01-29T13:25:33.281Z,101064.53
2023-01-29T13:28:00.594Z,101063.59
2023-01-29T13:30:31.022Z,101068.97
2023-01-29T13:33:11.399Z,101064.53
2023-01-29T13:35:42.750Z,101059.25
2023-01-29T13:38:36.472Z,101059.25
2023-01-29T13:41:06.360Z,101061.06
2023-01-29T13:43:35.495Z,101056.63
2023-01-29T13:46:10.621Z,101065.53
2023-01-29T13:48:44.187Z,101060.16
2023-01-29T13:51:17.035Z,101062.75
2023-01-29T13:53:57.083Z,101064.69
2023-01-29T13:56:44.724Z,101073.75
2023-01-29T13:59:55.386Z,101072.78
2023-01-29T14:02:29.074Z,101066.50
2023-01-29T14:05:31.891Z,101072.84
2023-01-29T14:08:14.455Z,101072.97
2023-01-29T14:10:43.235Z,101067.59
2023-01-29T14:13:19.168Z,101067.56
2023-01-29T14:16:03.994Z,101072.13
2023-01-29T14:18:34.806Z,101064.94
2023-01-29T14:21:16.529Z,101063.06
2023-01-29T14:23:52.609Z,101062.22
2023-01-29T14:26:28.647Z,101073.91
2023-01-29T14:29:01.523Z,101065.94
2023-01-29T14:31:39.595Z,101070.47
2023-01-29T14:34:15.695Z,101070.47
2023-01-29T14:36:45.617Z,101064.25
2023-01-29T14:39:24.183Z,101070.56
2023-01-29T14:41:52.592Z,101067.00
2023-01-29T14:44:44.699Z,101055.41
2023-01-29T14:47:28.231Z,101059.03
2023-01-29T14:49:56.991Z,101045.59
2023-01-29T14:52:36.000Z,101047.34
2023-01-29T14:55:09.438Z,101047.44
2023-01-29T14:57:38.834Z,101046.59
2023-01-29T15:00:14.972Z,101047.44
2023-01-29T15:02:44.520Z,101043.06
2023-01-29T15:05:19.466Z,101036.03
2023-01-29T15:08:00.730Z,101042.28
2023-01-29T15:10:40.095Z,101050.34
2023-01-29T15:13:30.522Z,101047.69
2023-01-29T15:16:24.354Z,101046.81
2023-01-29T15:18:57.171Z,101039.59
2023-01-29T15:21:24.507Z,101052.19
2023-01-29T15:24:04.696Z,101045.88
2023-01-29T15:26:33.029Z,101042.34
2023-01-29T15:29:04.659Z,101046.72
2023-01-29T15:31:33.168Z,101056.56
2023-01-29T15:34:06.284Z,101052.19
2023-01-29T15:36:34.031Z,101057.66
2023-01-29T15:39:13.457Z,101065.66
2023-01-29T15:41:40.858Z,101065.59
2023-01-29T15:44:24.107Z,101062.13
2023-01-29T15:47:01.774Z,101059.53
2023-01-29T15:49:35.304Z,101063.06
2023-01-29T15:52:20.514Z,101058.63
2023-01-29T15:54:47.856Z,101062.16
2023-01-29T15:57:28.283Z,101064.88
2023-01-29T15:59:57.948Z,101070.25
2023-01-29T16:02:40.134Z,101069.41
2023-01-29T16:05:33.301Z,101080.06
2023-01-29T16:08:01.389Z,101079.16
2023-01-29T16:10:31.384Z,101080.97
2023-01-29T16:12:58.784Z,101078.34
2023-01-29T16:15:56.442Z,101073.06
2023-01-29T16:18:36.524Z,101081.06
2023-01-29T16:21:12.940Z,101077.44
2023-01-29T16:23:44.130Z,101078.34
2023-01-29T16:26:25.699Z,101081.09
2023-01-29T16:28:53.079Z,101086.38
2023-01-29T16:31:32.072Z,101081.03
2023-01-29T16:34:07.218Z,101087.38
2023-01-29T16:36:34.667Z,101089.09
2023-01-29T16:39:06.541Z,101087.28
2023-01-29T16:41:36.186Z,101097.13
2023-01-29T16:44:24.860Z,101095.25
2023-01-29T16:46:52.316Z,101100.66
2023-01-29T16:49:25.637Z,101099.75
2023-01-29T16:51:54.705Z,101105.06
2023-01-29T16:54:26.634Z,101097.91
2023-01-29T16:56:59.032Z,101100.72
2023-01-29T16:59:32.024Z,101096.25
2023-01-29T17:02:00.317Z,101103.22
2023-01-29T17:04:27.913Z,101100.59
2023-01-29T17:06:59.179Z,101100.66
2023-01-29T17:09:33.992Z,101091.72
2023-01-29T17:12:05.704Z,101093.53
2023-01-29T17:14:34.395Z,101090.88
2023-01-29T17:17:07.634Z,101091.81
2023-01-29T17:19:34.838Z,101089.09
2023-01-29T17:53:10.470Z,101082.97
2023-01-29T17:55:37.131Z,101079.03
2023-01-29T17:58:03.753Z,101080.41
2023-01-29T18:00:30.458Z,101091.06
2023-01-29T18:02:58.022Z,101089.09
2023-01-29T18:05:24.673Z,101090.34
2023-01-29T18:07:52.300Z,101090.53
2023-01-29T18:10:21.404Z,101089.78
2023-01-29T18:12:49.335Z,101074.78
2023-01-29T18:15:16.614Z,101078.31
2023-01-29T18:17:43.619Z,101082.78
2023-01-29T18:20:16.303Z,101076.59
2023-01-29T18:22:43.078Z,101073.03
2023-01-29T18:25:09.988Z,101082.84
2023-01-29T18:27:36.517Z,101070.38
2023-01-29T18:30:04.844Z,101065.03
2023-01-29T18:32:31.523Z,101068.69
2023-01-29T18:34:58.075Z,101061.53
2023-01-29T18:37:24.629Z,101065.09
2023-01-29T18:39:51.170Z,101067.72
2023-01-29T18:42:17.710Z,101066.97
2023-01-29T18:44:44.248Z,101052.75
2023-01-29T18:47:10.795Z,101060.69
2023-01-29T18:49:39.157Z,101060.69
2023-01-29T18:52:07.241Z,101063.34
2023-01-29T18:54:33.969Z,101052.50
2023-01-29T18:57:13.046Z,101056.06
2023-01-29T18:59:43.257Z,101056.19
2023-01-29T19:02:17.392Z,101046.63
2023-01-29T19:04:45.138Z,101057.50
2023-01-29T19:07:13.334Z,101059.16
2023-01-29T19:09:40.614Z,101050.50
2023-01-29T19:12:08.379Z,101046.94
2023-01-29T19:14:34.959Z,101054.06
2023-01-29T19:17:01.716Z,101050.63
2023-01-29T19:19:28.899Z,101041.84
2023-01-29T19:21:55.412Z,101049.72
2023-01-29T19:24:22.680Z,101050.72
2023-01-29T19:26:49.699Z,101051.63
2023-01-29T19:29:17.226Z,101048.78
2023-01-29T19:31:44.102Z,101051.41
2023-01-29T19:34:10.710Z,101054.13
2023-01-29T19:36:37.447Z,101048.88
2023-01-29T19:39:04.758Z,101053.47
2023-01-29T19:41:31.663Z,101052.59
2023-01-29T19:43:58.476Z,101045.47
2023-01-29T19:46:25.049Z,101055.94
2023-01-29T19:48:51.774Z,101058.47
2023-01-29T19:51:18.621Z,101052.88
2023-01-29T19:53:45.180Z,101056.47
2023-01-29T19:56:14.855Z,101048.44
2023-01-29T19:58:41.760Z,101050.34
2023-01-29T20:01:19.401Z,101046.91
2023-01-29T20:03:50.091Z,101040.69
2023-01-29T20:06:23.868Z,101046.97
2023-01-29T20:08:50.952Z,101047.72
2023-01-29T20:11:19.725Z,101051.41
2023-01-29T20:13:48.606Z,101045.28
2023-01-29T20:16:16.246Z,101048.06
2023-01-29T20:18:42.939Z,101054.16
2023-01-29T20:21:12.406Z,101052.53
2023-01-29T20:23:40.084Z,101047.81
2023-01-29T20:26:15.805Z,101046.88
2023-01-29T20:28:43.281Z,101053.22
2023-01-29T20:31:09.949Z,101047.16
2023-01-29T20:33:39.313Z,101057.66
2023-01-29T20:36:10.041Z,101044.19
2023-01-29T20:38:36.901Z,101040.72
2023-01-29T20:41:10.396Z,101043.53
2023-01-29T20:43:37.137Z,101046.25
2023-01-29T20:46:04.417Z,101041.81
2023-01-29T20:48:31.936Z,101040.16
2023-01-29T20:51:15.344Z,101039.31
2023-01-29T20:53:45.769Z,101039.34
2023-01-29T20:56:14.042Z,101036.63
2023-01-29T20:58:41.215Z,101031.25
2023-01-29T21:01:10.131Z,101030.41
2023-01-29T21:03:37.102Z,101032.13
2023-01-29T21:06:03.790Z,101025.88
2023-01-29T21:08:30.379Z,101027.72
2023-01-29T21:10:56.991Z,101025.94
2023-01-29T21:13:23.622Z,101021.41
2023-01-29T21:15:50.854Z,101027.72
2023-01-29T21:18:17.532Z,101024.19
2023-01-29T21:20:44.312Z,101025.13
2023-01-29T21:23:11.029Z,101021.50
2023-01-29T21:25:38.799Z,101027.66
2023-01-29T21:28:06.135Z,101027.50
2023-01-29T21:30:33.071Z,101028.38
2023-01-29T21:33:00.000Z,101028.38
2023-01-29T21:35:26.534Z,101022.25
2023-01-29T21:37:53.099Z,101021.56
2023-01-29T21:40:21.324Z,101027.66
2023-01-29T21:43:07.000Z,101024.94
2023-01-29T21:45:35.609Z,101025.69
2023-01-29T21:48:02.367Z,101023.75
2023-01-29T21:50:29.076Z,101021.84
2023-01-29T21:52:55.629Z,101025.38
2023-01-29T21:55:22.221Z,101017.44
2023-01-29T21:57:49.163Z,101019.16
2023-01-29T22:00:16.447Z,101020.06
2023-01-29T22:02:43.430Z,101014.72
2023-01-29T22:05:18.808Z,101013.88
2023-01-29T22:07:46.352Z,101014.78
2023-01-29T22:10:13.104Z,101005.91
2023-01-29T22:12:40.073Z,101003.25
2023-01-29T22:15:07.565Z,101003.28
2023-01-29T22:17:34.508Z,101002.38
2023-01-29T22:20:01.526Z,100998.81
2023-01-29T22:22:28.091Z,101000.63
2023-01-29T22:24:56.506Z,100999.81
2023-01-29T22:27:23.370Z,101000.56
2023-01-29T22:29:50.007Z,101008.63
2023-01-29T22:32:16.755Z,101009.44
2023-01-29T22:34:43.356Z,100996.91
2023-01-29T22:37:09.966Z,101004.22
2023-01-29T22:39:36.590Z,100999.97
2023-01-29T22:42:03.305Z,100998.91
2023-01-29T22:44:30.019Z,100993.53
2023-01-29T22:46:56.631Z,100993.72
2023-01-29T22:49:25.185Z,100988.47
2023-01-29T22:52:09.998Z,100990.38
2023-01-29T22:54:41.574Z,100976.91
2023-01-29T22:57:13.279Z,100982.28
2023-01-29T22:59:40.140Z,100976.03
2023-01-29T23:02:08.096Z,100989.38
2023-01-29T23:04:35.044Z,100987.41
2023-01-29T23:07:01.636Z,100984.19
2023-01-29T23:09:28.188Z,100976.09
2023-01-29T23:11:54.830Z,100985.75
2023-01-29T23:14:21.494Z,100981.31
2023-01-29T23:16:48.044Z,100982.09
2023-01-29T23:19:14.594Z,100972.47
2023-01-29T23:21:41.242Z,100969.75
2023-01-29T23:24:08.625Z,100970.75
2023-01-29T23:26:53.656Z,100960.97
2023-01-29T23:29:20.592Z,100957.47
2023-01-29T23:31:47.188Z,100956.41
2023-01-29T23:34:14.306Z,100946.50
2023-01-29T23:36:42.508Z,100945.81
2023-01-29T23:39:09.514Z,100941.19
2023-01-29T23:41:36.596Z,100942.91
2023-01-29T23:44:03.851Z,100940.19
2023-01-29T23:46:31.046Z,100936.44
2023-01-29T23:48:57.693Z,100933.03
2023-01-29T23:51:24.394Z,100938.25
2023-01-29T23:53:51.090Z,100931.19
2023-01-29T23:56:17.766Z,100929.16
2023-01-29T23:58:44.935Z,100928.25
